NID weather

China Lake Naws (Armitage Field) Airport
China Lake, California, United States

Public forecast

Using degrees Fahrenheit for public forecast. Weather courtesy of forecast.io.

Current aviation weather report (METAR) for China Lake Naws (Armitage Field) Airport

Retrieved 2020/07/07 17:56 UTC (51 minutes ago):

KNID 071756Z 23010G14KT 10SM CLR 36/M07 A2984 RMK AO2 SLP078 T03561067 10361 20239 58004

Aviation forecast (TAF) for China Lake Naws (Armitage Field) Airport

Forecast is more than 12 hours old.

Retrieved 2016/02/03 15:51 UTC (4 years ago):

TAF KNID 031500Z 0315/0415 VRB05KT 9999 SKC QNH3032INS BECMG 0323/0401 VRB06KT 9999 SCT150 BKN250 QNH3033INS BECMG 0411/0413 VRB05KT 9999 FEW250 QNH3036INS TX12/0323Z TNM04/0414Z